Terminal Aerodrome Forecast
Issued by NWS

Home | Current Version | Previous Version | Text Only | Print | Product List | Glossary On
Versions: 1 2 3 4 5 6 7 8 9 10 11 12 13 14 15 16 17 18 19 20
000
FTUS43 KGRR 301748
TAFJXN
TAF
KJXN 301748Z 3018/0118 10008KT P6SM VCSH OVC050
     FM302115 10009KT 6SM -RA BR OVC025
     FM302300 10010KT 3SM -RA BR OVC015
     FM010200 10010KT 3SM BR VCSH OVC003
     FM011500 05006KT 6SM BR OVC007=

USA.gov is the U.S. government's official web portal to all federal, state and local government web resources and services.